createdAt,value
2023-01-10T00:01:25.452Z,4.50
2023-01-10T00:03:52.464Z,8.27
2023-01-10T00:06:19.970Z,4.20
2023-01-10T00:08:46.830Z,4.43
2023-01-10T00:11:32.781Z,7.47
2023-01-10T00:13:59.980Z,8.43
2023-01-10T00:16:27.384Z,4.40
2023-01-10T00:18:54.386Z,4.40
2023-01-10T00:21:21.590Z,4.63
2023-01-10T00:23:49.197Z,4.43
2023-01-10T00:26:16.595Z,5.30
2023-01-10T00:28:43.953Z,3.72
2023-01-10T00:31:12.198Z,3.40
2023-01-10T00:33:39.419Z,5.55
2023-01-10T00:36:09.760Z,2.88
2023-01-10T00:38:36.962Z,4.90
2023-01-10T00:41:25.113Z,5.75
2023-01-10T00:43:58.043Z,3.95
2023-01-10T00:46:26.485Z,2.50
2023-01-10T00:48:53.812Z,2.92
2023-01-10T00:51:21.105Z,3.05
2023-01-10T00:53:48.010Z,2.58
2023-01-10T00:56:15.260Z,3.72
2023-01-10T00:58:43.012Z,3.28
2023-01-10T01:01:10.508Z,2.42
2023-01-10T01:03:37.445Z,2.45
2023-01-10T01:06:06.792Z,1.98
2023-01-10T01:08:34.464Z,2.00
2023-01-10T01:11:01.702Z,3.78
2023-01-10T01:13:28.756Z,2.63
2023-01-10T01:16:00.418Z,2.25
2023-01-10T01:18:28.631Z,6.30
2023-01-10T01:21:01.006Z,1.60
2023-01-10T01:23:29.202Z,2.35
2023-01-10T01:25:57.660Z,1.90
2023-01-10T01:28:25.278Z,1.88
2023-01-10T01:30:52.619Z,4.40
2023-01-10T01:33:20.895Z,3.33
2023-01-10T01:35:49.725Z,2.45
2023-01-10T01:38:17.837Z,2.20
2023-01-10T01:40:45.451Z,2.85
2023-01-10T01:43:25.782Z,3.15
2023-01-10T01:45:54.012Z,2.67
2023-01-10T01:48:34.558Z,1.77
2023-01-10T01:51:07.677Z,3.38
2023-01-10T01:53:54.568Z,3.42
2023-01-10T01:56:33.291Z,2.33
2023-01-10T01:59:09.200Z,1.73
2023-01-10T02:01:40.897Z,1.90
2023-01-10T02:04:18.777Z,2.55
2023-01-10T02:06:52.154Z,2.38
2023-01-10T02:09:30.631Z,2.70
2023-01-10T02:11:57.964Z,1.90
2023-01-10T02:14:26.648Z,2.97
2023-01-10T02:16:53.891Z,2.30
2023-01-10T02:19:48.384Z,2.08
2023-01-10T02:22:39.921Z,2.97
2023-01-10T02:25:50.027Z,3.25
2023-01-10T02:29:17.423Z,1.65
2023-01-10T02:32:11.940Z,2.85
2023-01-10T02:35:24.187Z,2.35
2023-01-10T02:38:22.190Z,2.53
2023-01-10T02:41:27.963Z,2.10
2023-01-10T02:44:18.282Z,2.05
2023-01-10T02:46:49.396Z,2.65
2023-01-10T02:49:16.352Z,2.78
2023-01-10T02:51:43.657Z,2.22
2023-01-10T02:54:18.692Z,3.08
2023-01-10T02:57:19.547Z,4.07
2023-01-10T03:00:19.956Z,2.42
2023-01-10T03:03:03.913Z,2.97
2023-01-10T03:05:45.989Z,2.35
2023-01-10T03:08:39.410Z,1.98
2023-01-10T03:11:10.149Z,5.25
2023-01-10T03:14:01.046Z,4.20
2023-01-10T03:16:32.394Z,4.05
2023-01-10T03:19:07.938Z,2.20
2023-01-10T03:21:40.877Z,3.78
2023-01-10T03:24:36.531Z,2.30
2023-01-10T03:27:41.621Z,2.20
2023-01-10T03:30:47.133Z,2.00
2023-01-10T03:33:19.189Z,2.00
2023-01-10T03:36:27.326Z,2.40
2023-01-10T03:39:21.606Z,2.65
2023-01-10T03:42:13.609Z,3.15
2023-01-10T03:45:00.313Z,2.63
2023-01-10T03:47:46.488Z,3.13
2023-01-10T03:50:20.192Z,3.63
2023-01-10T03:52:47.798Z,3.10
2023-01-10T03:55:22.886Z,2.35
2023-01-10T03:57:50.088Z,3.88
2023-01-10T04:00:18.268Z,3.63
2023-01-10T04:02:45.929Z,3.75
2023-01-10T04:05:13.450Z,2.30
2023-01-10T04:07:40.946Z,2.30
2023-01-10T04:10:09.349Z,2.25
2023-01-10T04:12:36.808Z,5.60
2023-01-10T04:15:04.755Z,2.58
2023-01-10T04:17:32.012Z,3.95
2023-01-10T04:19:58.902Z,3.22
2023-01-10T04:22:26.202Z,2.08
2023-01-10T04:24:54.448Z,4.53
2023-01-10T04:27:21.756Z,2.53
2023-01-10T04:29:48.771Z,3.78
2023-01-10T04:32:16.269Z,3.58
2023-01-10T04:34:43.193Z,6.45
2023-01-10T04:37:10.446Z,2.28
2023-01-10T04:39:37.308Z,2.47
2023-01-10T04:42:04.564Z,2.55
2023-01-10T04:44:31.402Z,3.20
2023-01-10T04:46:58.654Z,2.55
2023-01-10T04:49:25.563Z,3.78
2023-01-10T04:51:52.829Z,2.33
2023-01-10T04:54:23.473Z,2.30
2023-01-10T04:56:50.942Z,2.53
2023-01-10T04:59:18.004Z,2.42
2023-01-10T05:01:45.284Z,2.20
2023-01-10T05:04:13.417Z,3.83
2023-01-10T05:06:40.689Z,3.92
2023-01-10T05:09:09.223Z,11.65
2023-01-10T05:11:36.724Z,1.98
2023-01-10T05:14:03.625Z,2.97
2023-01-10T05:16:30.961Z,2.30
2023-01-10T05:18:57.875Z,2.53
2023-01-10T05:21:25.302Z,2.33
2023-01-10T05:23:52.219Z,3.05
2023-01-10T05:26:23.500Z,2.63
2023-01-10T05:28:50.844Z,6.43
2023-01-10T05:31:20.378Z,3.22
2023-01-10T05:33:50.363Z,3.80
2023-01-10T05:36:19.268Z,3.25
2023-01-10T05:38:46.515Z,2.88
2023-01-10T05:41:14.317Z,3.47
2023-01-10T05:43:41.568Z,2.47
2023-01-10T05:46:09.568Z,2.63
2023-01-10T05:48:36.726Z,2.83
2023-01-10T05:51:04.151Z,2.53
2023-01-10T05:53:31.192Z,3.33
2023-01-10T05:56:01.504Z,2.60
2023-01-10T05:58:29.852Z,3.72
2023-01-10T06:00:58.427Z,4.53
2023-01-10T06:03:26.712Z,4.20
2023-01-10T06:05:55.959Z,3.60
2023-01-10T06:08:24.253Z,3.05
2023-01-10T06:10:52.066Z,5.53
2023-01-10T06:13:19.131Z,2.83
2023-01-10T06:15:47.078Z,4.28
2023-01-10T06:18:15.118Z,6.53
2023-01-10T06:20:44.346Z,4.22
2023-01-10T06:23:12.417Z,3.70
2023-01-10T06:25:42.828Z,2.80
2023-01-10T06:28:13.246Z,2.92
2023-01-10T06:30:44.699Z,3.10
2023-01-10T06:33:12.517Z,3.33
2023-01-10T06:35:40.163Z,4.63
2023-01-10T06:38:07.129Z,10.50
2023-01-10T06:40:34.344Z,6.78
2023-01-10T06:43:01.382Z,3.30
2023-01-10T06:45:28.813Z,4.93
2023-01-10T06:47:56.011Z,4.55
2023-01-10T06:50:23.800Z,8.82
2023-01-10T06:52:59.408Z,7.93
2023-01-10T06:55:28.263Z,4.20
2023-01-10T06:58:03.834Z,3.35
2023-01-10T07:00:32.409Z,2.90
2023-01-10T07:03:01.363Z,4.72
2023-01-10T07:05:29.776Z,2.53
2023-01-10T07:07:58.834Z,2.80
2023-01-10T07:10:26.892Z,4.93
2023-01-10T07:12:58.757Z,4.18
2023-01-10T07:17:59.993Z,5.20
2023-01-10T07:20:28.815Z,7.40
2023-01-10T07:23:00.654Z,4.15
2023-01-10T07:25:30.185Z,4.30
2023-01-10T07:27:57.262Z,3.92
2023-01-10T07:30:26.019Z,7.32
2023-01-10T07:32:56.088Z,5.90
2023-01-10T07:35:25.116Z,7.90
2023-01-10T07:37:52.110Z,6.68
2023-01-10T07:40:19.546Z,3.33
2023-01-10T07:42:46.448Z,7.72
2023-01-10T07:45:13.618Z,4.70
2023-01-10T07:47:40.627Z,4.68
2023-01-10T07:50:08.809Z,6.35
2023-01-10T07:52:35.828Z,6.18
2023-01-10T07:55:03.222Z,4.20
2023-01-10T07:57:30.186Z,3.97
2023-01-10T07:59:57.596Z,7.32
2023-01-10T08:02:24.714Z,3.00
2023-01-10T08:04:52.037Z,7.40
2023-01-10T08:07:18.990Z,6.65
2023-01-10T08:09:46.340Z,4.78
2023-01-10T08:12:13.747Z,5.55
2023-01-10T08:14:40.986Z,9.52
2023-01-10T08:17:08.009Z,11.55
2023-01-10T08:19:35.264Z,4.22
2023-01-10T08:22:03.184Z,3.53
2023-01-10T08:24:30.338Z,4.47
2023-01-10T08:27:01.450Z,3.40
2023-01-10T08:29:29.928Z,5.95
2023-01-10T08:31:57.262Z,3.10
2023-01-10T08:34:24.728Z,6.15
2023-01-10T08:36:53.705Z,3.75
2023-01-10T08:39:22.730Z,3.55
2023-01-10T08:41:49.896Z,3.42
2023-01-10T08:44:17.095Z,4.55
2023-01-10T08:46:44.204Z,5.18
2023-01-10T08:49:11.870Z,3.90
2023-01-10T08:51:38.797Z,6.05
2023-01-10T08:54:06.273Z,7.38
2023-01-10T08:56:33.249Z,8.18
2023-01-10T08:59:00.404Z,7.78
2023-01-10T09:01:27.407Z,3.40
2023-01-10T09:03:55.143Z,12.65
2023-01-10T09:06:22.125Z,6.22
2023-01-10T09:08:49.458Z,4.15
2023-01-10T09:11:16.534Z,3.60
2023-01-10T09:13:43.811Z,2.90
2023-01-10T09:16:11.141Z,3.63
2023-01-10T09:18:38.576Z,5.18
2023-01-10T09:21:05.813Z,2.33
2023-01-10T09:23:34.398Z,2.88
2023-01-10T09:26:03.486Z,5.53
2023-01-10T09:28:30.684Z,7.40
2023-01-10T09:30:57.674Z,3.10
2023-01-10T09:33:26.530Z,4.93
2023-01-10T09:35:59.014Z,5.55
2023-01-10T09:38:27.806Z,2.55
2023-01-10T09:41:06.696Z,3.90
2023-01-10T09:44:02.664Z,2.03
2023-01-10T09:46:52.572Z,7.45
2023-01-10T09:49:49.122Z,2.20
2023-01-10T09:52:27.435Z,3.15
2023-01-10T09:55:00.242Z,3.20
2023-01-10T09:57:27.461Z,2.90
2023-01-10T09:59:54.979Z,2.08
2023-01-10T10:02:39.258Z,2.88
2023-01-10T10:05:25.640Z,2.60
2023-01-10T10:08:00.253Z,7.20
2023-01-10T10:13:33.649Z,3.03
2023-01-10T10:17:09.053Z,2.60
2023-01-10T10:19:58.113Z,4.38
2023-01-10T10:23:09.013Z,3.78
2023-01-10T10:25:56.931Z,2.63
2023-01-10T10:28:55.495Z,2.33
2023-01-10T10:31:55.454Z,2.53
2023-01-10T10:34:46.937Z,3.10
2023-01-10T10:37:33.646Z,2.42
2023-01-10T10:40:11.710Z,2.40
2023-01-10T10:42:43.611Z,4.55
2023-01-10T10:45:41.731Z,2.28
2023-01-10T10:48:31.092Z,2.20
2023-01-10T10:51:21.441Z,4.05
2023-01-10T10:53:48.395Z,2.78
2023-01-10T10:56:21.788Z,5.97
2023-01-10T10:58:53.929Z,2.58
2023-01-10T11:01:25.564Z,2.80
2023-01-10T11:04:02.360Z,3.38
2023-01-10T11:06:35.565Z,2.13
2023-01-10T11:09:06.844Z,2.75
2023-01-10T11:11:45.124Z,4.38
2023-01-10T11:14:13.637Z,7.72
2023-01-10T11:16:45.026Z,3.55
2023-01-10T11:19:26.312Z,2.72
2023-01-10T11:22:03.718Z,3.47
2023-01-10T11:24:52.643Z,2.50
2023-01-10T11:27:29.406Z,2.22
2023-01-10T11:30:03.257Z,6.00
2023-01-10T11:32:48.520Z,2.93
2023-01-10T11:35:39.127Z,4.63
2023-01-10T11:38:24.650Z,4.00
2023-01-10T11:41:20.499Z,2.78
2023-01-10T11:43:47.815Z,2.80
2023-01-10T11:46:21.231Z,4.57
2023-01-10T11:49:06.925Z,2.70
2023-01-10T11:51:45.890Z,4.60
2023-01-10T11:54:25.728Z,2.72
2023-01-10T11:57:07.394Z,2.13
2023-01-10T11:59:35.141Z,3.90
2023-01-10T12:02:17.788Z,4.40
2023-01-10T12:04:48.579Z,2.50
2023-01-10T12:07:15.591Z,2.60
2023-01-10T12:10:03.776Z,4.50
2023-01-10T12:12:36.321Z,4.45
2023-01-10T12:15:30.598Z,4.68
2023-01-10T12:18:01.778Z,2.70
2023-01-10T12:20:37.194Z,2.63
2023-01-10T12:23:17.193Z,1.73
2023-01-10T12:25:47.033Z,1.98
2023-01-10T12:28:25.571Z,4.68
2023-01-10T12:30:56.407Z,4.88
2023-01-10T12:33:31.615Z,3.65
2023-01-10T12:36:26.688Z,3.92
2023-01-10T12:39:33.497Z,4.83
2023-01-10T12:42:21.852Z,2.70
2023-01-10T12:44:58.388Z,3.28
2023-01-10T12:47:25.594Z,9.68
2023-01-10T12:49:58.391Z,4.00
2023-01-10T12:52:45.788Z,3.70
2023-01-10T12:55:18.277Z,2.45
2023-01-10T12:57:53.431Z,6.80
2023-01-10T13:00:47.787Z,3.83
2023-01-10T13:03:29.407Z,6.80
2023-01-10T13:05:59.128Z,7.60
2023-01-10T13:08:33.199Z,4.60
2023-01-10T13:11:02.594Z,5.25
2023-01-10T13:13:55.315Z,5.40
2023-01-10T13:16:28.325Z,5.78
2023-01-10T13:19:10.419Z,4.03
2023-01-10T13:21:43.106Z,1.77
2023-01-10T13:24:18.195Z,3.40
2023-01-10T13:27:04.026Z,2.13
2023-01-10T13:29:51.667Z,3.33
2023-01-10T13:32:28.919Z,3.10
2023-01-10T13:35:16.315Z,2.05
2023-01-10T13:37:52.561Z,2.50
2023-01-10T13:40:30.913Z,6.18
2023-01-10T13:43:37.069Z,6.82
2023-01-10T13:46:16.759Z,6.00
2023-01-10T13:48:49.732Z,3.05
2023-01-10T13:51:23.118Z,5.28
2023-01-10T13:53:53.033Z,5.50
2023-01-10T13:56:42.017Z,2.13
2023-01-10T13:59:33.037Z,5.75
2023-01-10T14:02:21.294Z,4.25
2023-01-10T14:05:00.400Z,4.50
2023-01-10T14:07:35.535Z,7.20
2023-01-10T14:10:19.996Z,4.32
2023-01-10T14:13:09.200Z,6.57
2023-01-10T14:15:46.205Z,2.65
2023-01-10T14:18:25.923Z,5.07
2023-01-10T14:21:01.195Z,5.13
2023-01-10T14:23:43.065Z,6.80
2023-01-10T14:26:34.551Z,5.53
2023-01-10T14:29:12.680Z,1.67
2023-01-10T14:31:47.287Z,2.38
2023-01-10T14:34:25.731Z,3.38
2023-01-10T14:37:09.537Z,5.75
2023-01-10T14:39:37.682Z,11.95
2023-01-10T14:42:16.021Z,5.32
2023-01-10T14:45:19.715Z,4.65
2023-01-10T14:47:48.970Z,5.18
2023-01-10T14:50:30.129Z,6.78
2023-01-10T14:52:57.157Z,4.50
2023-01-10T14:55:24.704Z,6.82
2023-01-10T14:58:01.273Z,4.55
2023-01-10T15:00:33.016Z,9.02
2023-01-10T15:03:04.278Z,5.25
2023-01-10T15:05:44.646Z,5.15
2023-01-10T15:08:26.692Z,4.65
2023-01-10T15:11:02.278Z,2.72
2023-01-10T15:13:35.611Z,5.68
2023-01-10T15:16:05.632Z,4.15
2023-01-10T15:18:45.775Z,6.85
2023-01-10T15:21:16.181Z,4.60
2023-01-10T15:23:46.640Z,13.77
2023-01-10T15:26:21.448Z,11.52
2023-01-10T15:29:13.181Z,3.25
2023-01-10T15:31:42.603Z,3.55
2023-01-10T15:34:26.309Z,4.97
2023-01-10T15:37:00.440Z,2.65
2023-01-10T15:39:33.751Z,6.57
2023-01-10T15:42:06.084Z,2.97
2023-01-10T15:44:52.742Z,10.52
2023-01-10T15:47:40.464Z,7.00
2023-01-10T15:50:28.551Z,5.20
2023-01-10T15:53:03.675Z,5.60
2023-01-10T15:55:39.633Z,9.57
2023-01-10T15:58:30.367Z,6.28
2023-01-10T16:01:00.702Z,5.28
2023-01-10T16:03:49.690Z,10.55
2023-01-10T16:06:30.109Z,5.68
2023-01-10T16:09:03.206Z,9.00
2023-01-10T16:12:05.230Z,8.10
2023-01-10T16:14:36.082Z,3.75
2023-01-10T16:17:04.911Z,8.32
2023-01-10T16:19:32.517Z,8.32
2023-01-10T16:22:01.919Z,11.32
2023-01-10T16:24:34.376Z,6.20
2023-01-10T16:27:05.926Z,7.55
2023-01-10T16:29:34.513Z,8.05
2023-01-10T16:32:01.550Z,5.88
2023-01-10T16:34:28.982Z,5.13
2023-01-10T16:36:55.912Z,6.57
2023-01-10T16:39:24.036Z,5.22
2023-01-10T16:42:09.999Z,19.73
2023-01-10T16:44:37.245Z,10.68
2023-01-10T16:47:07.116Z,9.70
2023-01-10T16:49:34.536Z,6.82
2023-01-10T16:52:01.561Z,5.72
2023-01-10T16:54:28.845Z,9.35
2023-01-10T16:56:55.877Z,6.25
2023-01-10T16:59:23.508Z,8.82
2023-01-10T17:01:57.374Z,7.95
2023-01-10T17:04:30.224Z,4.50
2023-01-10T17:06:57.259Z,8.82
2023-01-10T17:09:29.448Z,10.48
2023-01-10T17:12:03.601Z,9.45
2023-01-10T17:14:36.563Z,9.18
2023-01-10T17:17:04.622Z,7.97
2023-01-10T17:19:32.275Z,9.45
2023-01-10T17:22:00.268Z,10.55
2023-01-10T17:24:29.747Z,7.75
2023-01-10T17:26:57.304Z,13.63
2023-01-10T17:29:25.476Z,7.65
2023-01-10T17:31:53.144Z,4.70
2023-01-10T17:34:20.817Z,6.47
2023-01-10T17:36:48.092Z,9.00
2023-01-10T17:39:15.387Z,4.97
2023-01-10T17:41:42.758Z,5.88
2023-01-10T17:44:10.096Z,8.73
2023-01-10T17:46:37.199Z,8.15
2023-01-10T17:49:04.480Z,6.43
2023-01-10T17:51:36.261Z,6.75
2023-01-10T17:54:03.815Z,10.90
2023-01-10T17:56:32.326Z,9.60
2023-01-10T17:58:59.535Z,6.47
2023-01-10T18:01:27.005Z,7.50
2023-01-10T18:03:54.396Z,14.65
2023-01-10T18:06:25.608Z,8.15
2023-01-10T18:08:54.163Z,13.75
2023-01-10T18:11:25.262Z,9.77
2023-01-10T18:13:53.582Z,10.70
2023-01-10T18:16:26.989Z,7.78
2023-01-10T18:18:56.483Z,10.95
2023-01-10T18:21:38.318Z,11.95
2023-01-10T18:24:06.137Z,14.43
2023-01-10T18:26:33.474Z,10.48
2023-01-10T18:29:00.919Z,9.57
2023-01-10T18:31:29.903Z,15.23
2023-01-10T18:33:58.411Z,11.40
2023-01-10T18:36:25.631Z,10.80
2023-01-10T18:38:57.351Z,12.85
2023-01-10T18:41:24.373Z,8.60
2023-01-10T18:43:52.208Z,12.95
2023-01-10T18:46:22.748Z,9.48
2023-01-10T18:48:53.381Z,7.75
2023-01-10T18:51:22.912Z,12.15
2023-01-10T18:53:53.355Z,11.18
2023-01-10T18:56:20.698Z,14.65
2023-01-10T18:58:49.046Z,12.95
2023-01-10T19:01:24.501Z,12.15
2023-01-10T19:03:52.086Z,14.07
2023-01-10T19:06:22.832Z,14.00
2023-01-10T19:08:52.388Z,18.20
2023-01-10T19:11:20.497Z,11.27
2023-01-10T19:13:54.335Z,9.82
2023-01-10T19:16:32.232Z,8.93
2023-01-10T19:19:05.446Z,10.77
2023-01-10T19:21:34.587Z,13.45
2023-01-10T19:24:15.474Z,13.32
2023-01-10T19:26:42.524Z,11.48
2023-01-10T19:29:14.507Z,11.95
2023-01-10T19:31:44.753Z,13.20
2023-01-10T19:34:16.387Z,13.63
2023-01-10T19:36:44.924Z,14.50
2023-01-10T19:39:14.635Z,13.68
2023-01-10T19:41:42.436Z,13.93
2023-01-10T19:44:16.922Z,15.88
2023-01-10T19:46:45.454Z,17.25
2023-01-10T19:49:17.822Z,14.77
2023-01-10T19:51:56.194Z,18.52
2023-01-10T19:54:25.744Z,17.27
2023-01-10T19:56:59.495Z,18.00
2023-01-10T19:59:34.722Z,14.15
2023-01-10T20:02:02.459Z,16.25
2023-01-10T20:04:31.680Z,20.27
2023-01-10T20:06:59.431Z,17.60
2023-01-10T20:09:28.835Z,18.00
2023-01-10T20:11:56.343Z,14.65
2023-01-10T20:14:24.981Z,16.17
2023-01-10T20:16:53.311Z,14.45
2023-01-10T20:19:21.782Z,18.92
2023-01-10T20:21:48.974Z,15.40
2023-01-10T20:24:21.808Z,18.27
2023-01-10T20:26:51.604Z,16.02
2023-01-10T20:29:20.188Z,18.45
2023-01-10T20:31:52.814Z,18.50
2023-01-10T20:34:22.786Z,22.73
2023-01-10T20:36:59.429Z,18.65
2023-01-10T20:39:26.811Z,21.48
2023-01-10T20:41:54.180Z,16.63
2023-01-10T20:44:21.586Z,17.25
2023-01-10T20:46:48.953Z,17.17
2023-01-10T20:49:16.304Z,18.25
2023-01-10T20:51:43.496Z,19.85
2023-01-10T20:54:11.997Z,18.15
2023-01-10T20:56:39.379Z,22.02
2023-01-10T20:59:06.997Z,25.52
2023-01-10T21:01:35.749Z,17.17
2023-01-10T21:04:08.001Z,17.38
2023-01-10T21:06:36.820Z,18.85
2023-01-10T21:09:05.605Z,18.20
2023-01-10T21:11:38.880Z,26.75
2023-01-10T21:14:14.874Z,17.38
2023-01-10T21:16:41.822Z,21.02
2023-01-10T21:19:13.475Z,19.88
2023-01-10T21:21:42.262Z,18.40
2023-01-10T21:24:09.985Z,19.05
2023-01-10T21:26:37.702Z,23.23
2023-01-10T21:29:04.988Z,19.33
2023-01-10T21:31:32.272Z,16.42
2023-01-10T21:33:59.645Z,14.45
2023-01-10T21:36:26.607Z,17.75
2023-01-10T21:38:53.900Z,22.85
2023-01-10T21:41:39.768Z,27.80
2023-01-10T21:44:08.521Z,25.13
2023-01-10T21:46:36.328Z,11.95
2023-01-10T21:49:05.347Z,26.75
2023-01-10T21:51:32.449Z,21.55
2023-01-10T21:53:59.874Z,15.98
2023-01-10T21:56:27.558Z,18.95
2023-01-10T21:58:54.860Z,17.95
2023-01-10T22:01:21.871Z,14.75
2023-01-10T22:03:50.523Z,23.17
2023-01-10T22:06:18.175Z,21.35
2023-01-10T22:08:45.524Z,19.05
2023-01-10T22:11:12.492Z,13.45
2023-01-10T22:13:40.101Z,14.82
2023-01-10T22:16:07.681Z,15.80
2023-01-10T22:18:35.169Z,23.33
2023-01-10T22:21:02.410Z,19.98
2023-01-10T22:23:31.032Z,14.18
2023-01-10T22:26:11.378Z,19.00
2023-01-10T22:28:38.925Z,17.55
2023-01-10T22:31:06.447Z,14.27
2023-01-10T22:33:37.555Z,15.52
2023-01-10T22:36:14.511Z,18.15
2023-01-10T22:38:42.547Z,14.15
2023-01-10T22:41:13.317Z,13.20
2023-01-10T22:43:40.931Z,13.27
2023-01-10T22:46:09.676Z,11.80
2023-01-10T22:48:38.653Z,15.85
2023-01-10T22:51:05.937Z,12.48
2023-01-10T22:53:34.376Z,16.45
2023-01-10T22:56:03.698Z,11.70
2023-01-10T22:58:31.253Z,14.70
2023-01-10T23:00:58.436Z,14.73
2023-01-10T23:03:25.787Z,14.85
2023-01-10T23:05:57.373Z,15.95
2023-01-10T23:08:26.853Z,18.38
2023-01-10T23:10:54.545Z,14.27
2023-01-10T23:13:24.240Z,12.88
2023-01-10T23:16:13.376Z,14.45
2023-01-10T23:18:40.761Z,13.82
2023-01-10T23:21:08.989Z,13.23
2023-01-10T23:23:36.700Z,18.15
2023-01-10T23:26:07.048Z,15.77
2023-01-10T23:28:42.649Z,16.27
2023-01-10T23:31:09.721Z,15.52
2023-01-10T23:33:37.339Z,15.23
2023-01-10T23:36:04.723Z,16.13
2023-01-10T23:38:31.946Z,15.70
2023-01-10T23:40:59.393Z,14.15
2023-01-10T23:43:26.590Z,18.27
2023-01-10T23:45:53.580Z,11.27
2023-01-10T23:48:21.451Z,18.17
2023-01-10T23:50:51.377Z,12.07
2023-01-10T23:53:19.788Z,11.75
2023-01-10T23:55:47.028Z,12.60
2023-01-10T23:58:15.390Z,17.52
